Camilla, Texas
Current Conditions -  °F | °C
As of 11:15 PM on Thursday 30 Oct 2014 (Local Time) from K6R3 Reporting Station
Scattered Clouds Scattered Clouds  
Wind Chill: 55°   Ceiling: Unl
Heat Index: 55°   Visibility: 10mi
Dew Point: 54°   Wind: 0mph
Humidity: 98%   Direction: NA
Pressure: 30.11"   Gusts: NA
Location:  30.5835°N, 95.1294°W
Report Text: K6R3 310415Z AUTO 00000KT 10SM SCT120 13/12 A3011 RMK AO2 T01250122
Loading
Personal Weather Stations






























Interactive Weather Map
Tropical Storm Tracking
New forecast layout! Learn more

10-Day Weather Forecast

Advertisements
Track Severe Weather on mobile